Time;durP1;ratioP1;P1;durP2;ratioP2;P2;SDS_P1;SDS_P2;PMS_P1;PMS_P2;Temp;Humidity;BMP_temperature;BMP_pressure;BME280_temperature;BME280_humidity;BME280_pressure;Samples;Min_cycle;Max_cycle;Signal;HPM_P1;HPM_P2
2023/10/24 00:00:01;;;;;;;;;;;;;;;;;;4946068;28;19915;-94
2023/10/24 00:02:27;;;;;;;;;;;;;;;;;;4942564;28;20383;-94
2023/10/24 00:04:56;;;;;;;;;;;;;;;;;;4947935;28;19923;-95
2023/10/24 00:07:25;;;;;;;;;;;;;;;;;;4946101;28;20269;-95
2023/10/24 00:09:51;;;;;;;;;;;;;;;;;;4931528;29;19915;-95
2023/10/24 00:12:17;;;;;;;;;;;;;;;;;;4950126;28;19922;-94
2023/10/24 00:14:43;;;;;;;;;;;;;;;;;;4936459;29;19915;-94
2023/10/24 00:17:09;;;;;;;;;;;;;;;;;;4937099;29;19987;-94
2023/10/24 00:19:35;;;;;;;;;;;;;;;;;;4956998;28;19937;-94
2023/10/24 00:22:01;;;;;;;;;;;;;;;;;;4942416;29;20302;-95
2023/10/24 00:24:27;;;;;;;;;;;;;;;;;;4935391;29;19918;-95
2023/10/24 00:26:55;;;;;;;;;;;;;;;;;;4939086;29;19977;-94
2023/10/24 00:29:21;;;;;;;;;;;;;;;;;;4930951;29;19966;-95
2023/10/24 00:31:47;;;;;;;;;;;;;;;;;;4936873;29;19923;-95
2023/10/24 00:34:13;;;;;;;;;;;;;;;;;;4938287;29;19915;-93
2023/10/24 00:36:40;;;;;;;;;;;;;;;;;;4938890;29;19930;-95
2023/10/24 00:39:06;;;;;;;;;;;;;;;;;;4934950;29;19922;-95
2023/10/24 00:41:32;;;;;;;;;;;;;;;;;;4936081;29;19922;-95
2023/10/24 00:43:58;;;;;;;;;;;;;;;;;;4944662;29;19966;-95
2023/10/24 00:46:24;;;;;;;;;;;;;;;;;;4943875;29;19945;-95
2023/10/24 00:48:50;;;;;;;;;;;;;;;;;;4935430;29;19915;-94
2023/10/24 00:51:16;;;;;;;;;;;;;;;;;;4921322;29;20418;-94
2023/10/24 00:53:42;;;;;;;;;;;;;;;;;;4938234;29;19916;-94
2023/10/24 00:56:08;;;;;;;;;;;;;;;;;;4937150;29;19966;-94
2023/10/24 00:58:34;;;;;;;;;;;;;;;;;;4935151;29;19953;-94
2023/10/24 01:01:00;;;;;;;;;;;;;;;;;;4919710;29;19919;-94
2023/10/24 01:03:26;;;;;;;;;;;;;;;;;;4935904;29;20523;-95
2023/10/24 01:05:55;;;;;;;;;;;;;;;;;;4931858;29;20299;-95
2023/10/24 01:08:20;;;;;;;;;;;;;;;;;;4932315;28;20022;-95
2023/10/24 01:10:46;;;;;;;;;;;;;;;;;;4932233;29;19968;-95
2023/10/24 01:13:12;;;;;;;;;;;;;;;;;;4937401;29;19918;-96
2023/10/24 01:15:38;;;;;;;;;;;;;;;;;;4933884;29;19930;-95
2023/10/24 01:18:04;;;;;;;;;;;;;;;;;;4938593;29;19919;-94
2023/10/24 01:20:30;;;;;;;;;;;;;;;;;;4937045;28;20450;-95
2023/10/24 01:22:58;;;;;;;;;;;;;;;;;;4935119;29;19941;-95
2023/10/24 01:25:24;;;;;;;;;;;;;;;;;;4933353;29;20444;-96
2023/10/24 01:27:53;;;;;;;;;;;;;;;;;;4933827;29;19943;-95
2023/10/24 01:30:19;;;;;;;;;;;;;;;;;;4948815;29;19950;-94
2023/10/24 01:32:45;;;;;;;;;;;;;;;;;;4952525;29;19919;-96
2023/10/24 01:35:18;;;;;;;;;;;;;;;;;;4949096;29;19919;-94
2023/10/24 01:37:45;;;;;;;;;;;;;;;;;;4941726;29;19915;-95
2023/10/24 01:40:11;;;;;;;;;;;;;;;;;;4934976;29;19914;-95
2023/10/24 01:42:38;;;;;;;;;;;;;;;;;;4933120;29;20025;-96
2023/10/24 01:45:08;;;;;;;;;;;;;;;;;;4942303;29;19925;-96
2023/10/24 01:47:33;;;;;;;;;;;;;;;;;;4939616;29;19925;-95
2023/10/24 01:50:03;;;;;;;;;;;;;;;;;;4933321;29;19915;-95
2023/10/24 01:52:29;;;;;;;;;;;;;;;;;;4938401;29;19925;-96
2023/10/24 01:54:55;;;;;;;;;;;;;;;;;;4931962;29;19923;-95
2023/10/24 01:57:22;;;;;;;;;;;;;;;;;;4936354;29;19950;-96
2023/10/24 01:59:51;;;;;;;;;;;;;;;;;;4938198;29;20299;-96
2023/10/24 02:02:20;;;;;;;;;;;;;;;;;;4943128;29;20007;-96
2023/10/24 02:04:48;;;;;;;;;;;;;;;;;;4945800;29;19982;-96
2023/10/24 02:07:19;;;;;;;;;;;;;;;;;;4945754;29;19934;-96
2023/10/24 02:09:45;;;;;;;;;;;;;;;;;;4946335;29;19942;-95
2023/10/24 02:12:13;;;;;;;;;;;;;;;;;;4945400;29;19934;-95
2023/10/24 02:14:47;;;;;;;;;;;;;;;;;;4938711;29;19919;-96
2023/10/24 02:17:13;;;;;;;;;;;;;;;;;;4939354;29;20471;-96
2023/10/24 02:19:41;;;;;;;;;;;;;;;;;;4948323;28;19930;-96
2023/10/24 02:22:10;;;;;;;;;;;;;;;;;;4960041;28;20481;-96
2023/10/24 02:24:39;;;;;;;;;;;;;;;;;;4952988;28;19934;-95
2023/10/24 02:27:05;;;;;;;;;;;;;;;;;;4962435;28;19969;-96
2023/10/24 02:29:31;;;;;;;;;;;;;;;;;;4955215;28;19918;-96
2023/10/24 02:32:00;;;;;;;;;;;;;;;;;;4941084;29;19919;-96
2023/10/24 02:34:27;;;;;;;;;;;;;;;;;;4941420;28;19922;-96
2023/10/24 02:36:53;;;;;;;;;;;;;;;;;;4954418;28;19915;-96
2023/10/24 02:39:20;;;;;;;;;;;;;;;;;;4954893;28;20046;-95
2023/10/24 02:41:46;;;;;;;;;;;;;;;;;;4954415;28;20021;-95
2023/10/24 02:44:25;;;;;;;;;;;;;;;;;;;;;
2023/10/24 02:46:51;;;;;;;;;;;;;;;;;;4934892;29;19919;-95
2023/10/24 02:49:19;;;;;;;;;;;;;;;;;;4951616;28;20010;-95
2023/10/24 02:51:44;;;;;;;;;;;;;;;;;;4945556;28;20512;-95
2023/10/24 02:54:10;;;;;;;;;;;;;;;;;;4950359;28;19966;-96
2023/10/24 02:56:36;;;;;;;;;;;;;;;;;;4931280;29;20549;-94
2023/10/24 02:59:03;;;;;;;;;;;;;;;;;;4936246;29;19965;-95
2023/10/24 03:01:32;;;;;;;;;;;;;;;;;;4933505;29;20009;-96
2023/10/24 03:03:58;;;;;;;;;;;;;;;;;;4932978;29;19923;-95
2023/10/24 03:06:24;;;;;;;;;;;;;;;;;;4946418;28;19997;-95
2023/10/24 03:08:50;;;;;;;;;;;;;;;;;;4934588;29;19934;-95
2023/10/24 03:11:16;;;;;;;;;;;;;;;;;;4948062;28;19922;-95
2023/10/24 03:13:43;;;;;;;;;;;;;;;;;;4951830;28;19918;-96
2023/10/24 03:16:09;;;;;;;;;;;;;;;;;;4946470;28;19926;-95
2023/10/24 03:18:35;;;;;;;;;;;;;;;;;;4953626;28;19962;-95
2023/10/24 03:21:01;;;;;;;;;;;;;;;;;;4944302;28;20333;-95
2023/10/24 03:23:27;;;;;;;;;;;;;;;;;;4961101;28;20326;-93
2023/10/24 03:25:53;;;;;;;;;;;;;;;;;;4947896;29;19983;-95
2023/10/24 03:28:19;;;;;;;;;;;;;;;;;;4958584;28;19953;-95
2023/10/24 03:30:45;;;;;;;;;;;;;;;;;;4944565;29;20029;-95
2023/10/24 03:33:20;;;;;;;;;;;;;;;;;;4959417;28;19954;-95
2023/10/24 03:35:46;;;;;;;;;;;;;;;;;;4961736;28;19918;-94
2023/10/24 03:38:12;;;;;;;;;;;;;;;;;;4963009;28;19914;-93
2023/10/24 03:40:38;;;;;;;;;;;;;;;;;;4962445;28;19920;-94
2023/10/24 03:43:07;;;;;;;;;;;;;;;;;;4959971;29;19919;-94
2023/10/24 03:45:40;;;;;;;;;;;;;;;;;;4959736;28;19918;-95
2023/10/24 03:48:06;;;;;;;;;;;;;;;;;;4962996;28;20238;-94
2023/10/24 03:50:32;;;;;;;;;;;;;;;;;;4961037;28;20295;-95
2023/10/24 03:52:59;;;;;;;;;;;;;;;;;;4961346;28;19925;-95
2023/10/24 03:55:25;;;;;;;;;;;;;;;;;;4950326;28;19921;-95
2023/10/24 03:57:51;;;;;;;;;;;;;;;;;;4942965;29;20290;-94
2023/10/24 04:00:17;;;;;;;;;;;;;;;;;;4941946;29;19917;-95
2023/10/24 04:02:42;;;;;;;;;;;;;;;;;;4955596;28;19914;-95
2023/10/24 04:05:14;;;;;;;;;;;;;;;;;;4960712;29;19965;-94
2023/10/24 04:07:40;;;;;;;;;;;;;;;;;;4960298;28;19918;-94
2023/10/24 04:10:07;;;;;;;;;;;;;;;;;;4947950;28;20422;-94
2023/10/24 04:12:33;;;;;;;;;;;;;;;;;;4959887;28;20381;-94
2023/10/24 04:14:59;;;;;;;;;;;;;;;;;;4958801;28;19922;-95
2023/10/24 04:17:25;;;;;;;;;;;;;;;;;;4958702;28;20287;-94
2023/10/24 04:19:51;;;;;;;;;;;;;;;;;;4960252;28;19926;-94
2023/10/24 04:22:20;;;;;;;;;;;;;;;;;;4953227;28;19927;-94
2023/10/24 04:24:46;;;;;;;;;;;;;;;;;;4939512;29;19919;-95
2023/10/24 04:27:12;;;;;;;;;;;;;;;;;;4936090;29;19911;-95
2023/10/24 04:29:38;;;;;;;;;;;;;;;;;;4937737;29;19922;-94
2023/10/24 04:32:05;;;;;;;;;;;;;;;;;;4946088;29;19933;-93
2023/10/24 04:34:31;;;;;;;;;;;;;;;;;;4942701;29;20012;-92
2023/10/24 04:36:57;;;;;;;;;;;;;;;;;;4946569;29;19962;-93
2023/10/24 04:39:25;;;;;;;;;;;;;;;;;;4943495;29;20261;-94
2023/10/24 04:41:53;;;;;;;;;;;;;;;;;;4939008;29;19925;-93
2023/10/24 04:44:20;;;;;;;;;;;;;;;;;;4937823;29;19985;-93
2023/10/24 04:46:46;;;;;;;;;;;;;;;;;;4925075;29;19919;-94
2023/10/24 04:49:14;;;;;;;;;;;;;;;;;;4935661;29;19923;-94
2023/10/24 04:51:53;;;;;;;;;;;;;;;;;;;;;
2023/10/24 04:54:23;;;;;;;;;;;;;;;;;;4930890;29;19914;-95
2023/10/24 04:56:49;;;;;;;;;;;;;;;;;;4927648;29;20348;-95
2023/10/24 04:59:15;;;;;;;;;;;;;;;;;;4930460;29;19923;-95
2023/10/24 05:01:41;;;;;;;;;;;;;;;;;;4929261;29;19918;-95
2023/10/24 05:04:07;;;;;;;;;;;;;;;;;;4926452;29;19922;-95
2023/10/24 05:06:33;;;;;;;;;;;;;;;;;;4935005;29;19970;-94
2023/10/24 05:08:59;;;;;;;;;;;;;;;;;;4916548;29;19958;-96
2023/10/24 05:11:35;;;;;;;;;;;;;;;;;;;;;
2023/10/24 05:14:20;;;;;;;;;;;;;;;;;;4936465;29;20534;-96
2023/10/24 05:16:47;;;;;;;;;;;;;;;;;;4929009;29;19915;-95
2023/10/24 05:19:13;;;;;;;;;;;;;;;;;;4931030;29;19958;-95
2023/10/24 05:21:39;;;;;;;;;;;;;;;;;;4935055;28;19939;-95
2023/10/24 05:24:05;;;;;;;;;;;;;;;;;;4943473;29;19957;-94
2023/10/24 05:26:37;;;;;;;;;;;;;;;;;;4945443;29;20283;-96
2023/10/24 05:29:04;;;;;;;;;;;;;;;;;;4937019;29;19938;-96
2023/10/24 05:31:32;;;;;;;;;;;;;;;;;;4945396;29;19946;-96
2023/10/24 05:34:01;;;;;;;;;;;;;;;;;;4940107;29;19970;-96
2023/10/24 05:36:27;;;;;;;;;;;;;;;;;;4938168;29;19925;-95
2023/10/24 05:38:56;;;;;;;;;;;;;;;;;;4935118;29;19926;-96
2023/10/24 05:41:32;;;;;;;;;;;;;;;;;;4938301;29;19957;-96
2023/10/24 05:44:01;;;;;;;;;;;;;;;;;;4943176;29;19946;-96
2023/10/24 05:46:37;;;;;;;;;;;;;;;;;;;;;
2023/10/24 05:49:06;;;;;;;;;;;;;;;;;;4948537;29;20009;-95
2023/10/24 05:51:33;;;;;;;;;;;;;;;;;;4943656;29;19994;-94
2023/10/24 05:53:59;;;;;;;;;;;;;;;;;;4952053;29;20426;-95
2023/10/24 05:56:25;;;;;;;;;;;;;;;;;;4948395;29;20387;-95
2023/10/24 05:58:54;;;;;;;;;;;;;;;;;;4941298;29;19911;-95
2023/10/24 06:01:36;;;;;;;;;;;;;;;;;;;;;
2023/10/24 06:04:05;;;;;;;;;;;;;;;;;;4944500;29;19997;-94
2023/10/24 06:06:31;;;;;;;;;;;;;;;;;;4943443;29;20257;-94
2023/10/24 06:08:57;;;;;;;;;;;;;;;;;;4933896;29;19918;-95
2023/10/24 06:11:23;;;;;;;;;;;;;;;;;;4924793;29;19911;-94
2023/10/24 06:13:50;;;;;;;;;;;;;;;;;;4937702;29;19911;-94
2023/10/24 06:16:25;;;;;;;;;;;;;;;;;;4943936;29;19911;-94
2023/10/24 06:18:56;;;;;;;;;;;;;;;;;;4957651;29;20279;-94
2023/10/24 06:21:25;;;;;;;;;;;;;;;;;;4963056;29;19973;-95
2023/10/24 06:23:51;;;;;;;;;;;;;;;;;;4963001;28;19978;-94
2023/10/24 06:26:30;;;;;;;;;;;;;;;;;;4961146;28;19915;-94
2023/10/24 06:28:56;;;;;;;;;;;;;;;;;;4956825;29;19918;-94
2023/10/24 06:31:22;;;;;;;;;;;;;;;;;;4970856;28;19911;-94
2023/10/24 06:33:50;;;;;;;;;;;;;;;;;;4965523;28;20348;-94
2023/10/24 06:36:23;;;;;;;;;;;;;;;;;;4930030;29;19911;-94
2023/10/24 06:38:49;;;;;;;;;;;;;;;;;;4959496;29;20368;-95
2023/10/24 06:41:16;;;;;;;;;;;;;;;;;;4950747;29;19918;-94
2023/10/24 06:43:42;;;;;;;;;;;;;;;;;;4943311;29;19933;-94
2023/10/24 06:46:13;;;;;;;;;;;;;;;;;;4949332;29;19919;-94
2023/10/24 06:48:39;;;;;;;;;;;;;;;;;;4949095;29;19911;-94
2023/10/24 06:51:05;;;;;;;;;;;;;;;;;;4977638;28;19969;-95
2023/10/24 06:53:31;;;;;;;;;;;;;;;;;;4960938;28;19951;-94
2023/10/24 06:55:58;;;;;;;;;;;;;;;;;;4959206;29;20283;-95
2023/10/24 06:58:24;;;;;;;;;;;;;;;;;;4955938;29;19937;-95
2023/10/24 07:00:55;;;;;;;;;;;;;;;;;;4955890;29;20023;-95
2023/10/24 07:03:21;;;;;;;;;;;;;;;;;;4956109;29;19919;-94
2023/10/24 07:05:47;;;;;;;;;;;;;;;;;;4955555;29;19926;-95
2023/10/24 07:08:13;;;;;;;;;;;;;;;;;;4959572;23;20307;-93
2023/10/24 07:10:39;;;;;;;;;;;;;;;;;;4955240;28;19911;-93
2023/10/24 07:13:05;;;;;;;;;;;;;;;;;;4953638;28;19914;-92
2023/10/24 07:15:31;;;;;;;;;;;;;;;;;;4954070;28;19922;-92
2023/10/24 07:17:57;;;;;;;;;;;;;;;;;;4934421;28;19928;-92
2023/10/24 07:20:23;;;;;;;;;;;;;;;;;;4941106;28;19982;-93
2023/10/24 07:22:49;;;;;;;;;;;;;;;;;;4935717;29;20363;-92
2023/10/24 07:25:15;;;;;;;;;;;;;;;;;;4937598;28;19919;-92
2023/10/24 07:27:41;;;;;;;;;;;;;;;;;;4940745;29;20612;-93
2023/10/24 07:30:09;;;;;;;;;;;;;;;;;;4948988;28;19918;-96
2023/10/24 07:32:34;;;;;;;;;;;;;;;;;;4956741;28;20385;-95
2023/10/24 07:35:16;;;;;;;;;;;;;;;;;;4951904;28;20461;-94
2023/10/24 07:37:42;;;;;;;;;;;;;;;;;;4948956;28;20017;-95
2023/10/24 07:40:09;;;;;;;;;;;;;;;;;;4946876;28;19923;-94
2023/10/24 07:42:35;;;;;;;;;;;;;;;;;;4933069;28;19973;-94
2023/10/24 07:45:01;;;;;;;;;;;;;;;;;;4933998;28;20343;-95
2023/10/24 07:47:27;;;;;;;;;;;;;;;;;;4934342;28;20275;-95
2023/10/24 07:49:52;;;;;;;;;;;;;;;;;;4934637;28;19978;-96
2023/10/24 07:52:18;;;;;;;;;;;;;;;;;;4934469;28;19918;-95
2023/10/24 07:54:44;;;;;;;;;;;;;;;;;;4930894;28;19921;-95
2023/10/24 07:57:12;;;;;;;;;;;;;;;;;;4943153;28;20339;-96
2023/10/24 07:59:38;;;;;;;;;;;;;;;;;;4928280;28;20363;-95
2023/10/24 08:02:03;;;;;;;;;;;;;;;;;;4947989;28;19915;-94
2023/10/24 08:04:30;;;;;;;;;;;;;;;;;;4934790;28;20402;-96
2023/10/24 08:06:56;;;;;;;;;;;;;;;;;;4948058;28;19915;-95
2023/10/24 08:09:22;;;;;;;;;;;;;;;;;;4965254;28;19926;-94
2023/10/24 08:11:48;;;;;;;;;;;;;;;;;;4948051;28;19931;-95
2023/10/24 08:14:14;;;;;;;;;;;;;;;;;;4948903;28;19945;-95
2023/10/24 08:16:40;;;;;;;;;;;;;;;;;;4950305;28;19918;-95
2023/10/24 08:19:06;;;;;;;;;;;;;;;;;;4951888;28;19928;-95
2023/10/24 08:21:32;;;;;;;;;;;;;;;;;;4955624;28;19921;-96
2023/10/24 08:23:58;;;;;;;;;;;;;;;;;;4951008;28;19918;-94
2023/10/24 08:26:24;;;;;;;;;;;;;;;;;;4947574;28;19922;-95
2023/10/24 08:28:50;;;;;;;;;;;;;;;;;;4951470;28;20128;-92
2023/10/24 08:31:16;;;;;;;;;;;;;;;;;;4967164;28;19925;-93
2023/10/24 08:33:42;;;;;;;;;;;;;;;;;;4966795;28;19918;-93
2023/10/24 08:36:08;;;;;;;;;;;;;;;;;;4952317;28;19918;-92
2023/10/24 08:38:34;;;;;;;;;;;;;;;;;;4951709;28;19918;-95
2023/10/24 08:41:00;;;;;;;;;;;;;;;;;;4967138;28;19926;-95
2023/10/24 08:43:26;;;;;;;;;;;;;;;;;;4949300;28;19933;-96
2023/10/24 08:45:52;;;;;;;;;;;;;;;;;;4951245;28;19945;-95
2023/10/24 08:48:18;;;;;;;;;;;;;;;;;;4950220;28;19918;-95
2023/10/24 08:50:44;;;;;;;;;;;;;;;;;;4966300;28;19977;-95
2023/10/24 08:53:14;;;;;;;;;;;;;;;;;;4965280;28;19914;-96
2023/10/24 08:55:39;;;;;;;;;;;;;;;;;;4949277;28;19922;-95
2023/10/24 08:58:05;;;;;;;;;;;;;;;;;;4957841;28;19918;-95
2023/10/24 09:00:31;;;;;;;;;;;;;;;;;;4961826;28;19925;-95
2023/10/24 09:02:57;;;;;;;;;;;;;;;;;;4949428;28;20386;-96
2023/10/24 09:05:23;;;;;;;;;;;;;;;;;;4946154;28;19918;-95
2023/10/24 09:07:49;;;;;;;;;;;;;;;;;;4965976;28;19948;-95
2023/10/24 09:10:15;;;;;;;;;;;;;;;;;;4947583;28;19922;-95
2023/10/24 09:12:42;;;;;;;;;;;;;;;;;;4919296;29;20096;-96
2023/10/24 09:15:09;;;;;;;;;;;;;;;;;;4925501;28;20391;-95
2023/10/24 09:17:35;;;;;;;;;;;;;;;;;;4958999;28;19941;-95
2023/10/24 09:20:03;;;;;;;;;;;;;;;;;;4938472;28;19948;-95
2023/10/24 09:22:30;;;;;;;;;;;;;;;;;;4953837;28;19914;-96
2023/10/24 09:24:58;;;;;;;;;;;;;;;;;;4949496;28;20387;-96
2023/10/24 09:27:27;;;;;;;;;;;;;;;;;;4948974;28;19922;-95
2023/10/24 09:30:02;;;;;;;;;;;;;;;;;;4950635;28;19923;-94
2023/10/24 09:32:28;;;;;;;;;;;;;;;;;;4937841;29;19918;-95
2023/10/24 09:34:54;;;;;;;;;;;;;;;;;;4949293;28;19925;-96
2023/10/24 09:37:20;;;;;;;;;;;;;;;;;;4935269;28;20093;-96
2023/10/24 09:39:46;;;;;;;;;;;;;;;;;;4959162;28;19914;-93
2023/10/24 09:42:12;;;;;;;;;;;;;;;;;;4938099;29;19926;-92
2023/10/24 09:44:38;;;;;;;;;;;;;;;;;;4937559;28;19946;-93
2023/10/24 09:47:03;;;;;;;;;;;;;;;;;;4940572;29;20443;-92
2023/10/24 09:49:30;;;;;;;;;;;;;;;;;;4934161;28;19914;-92
2023/10/24 09:51:56;;;;;;;;;;;;;;;;;;4933820;29;19922;-93
2023/10/24 09:54:23;;;;;;;;;;;;;;;;;;4950686;28;19914;-92
2023/10/24 09:56:49;;;;;;;;;;;;;;;;;;4952667;28;19921;-92
2023/10/24 09:59:15;;;;;;;;;;;;;;;;;;4950149;28;19922;-92
2023/10/24 10:01:41;;;;;;;;;;;;;;;;;;4934672;29;19923;-92
2023/10/24 10:04:07;;;;;;;;;;;;;;;;;;4935024;28;19914;-92
2023/10/24 10:06:34;;;;;;;;;;;;;;;;;;4936113;28;19922;-92
2023/10/24 10:09:00;;;;;;;;;;;;;;;;;;4183944;28;22015834;-92
2023/10/24 10:11:26;;;;;;;;;;;;;;;;;;4948737;28;19923;-93
2023/10/24 10:13:52;;;;;;;;;;;;;;;;;;4945243;28;20402;-92
2023/10/24 10:16:18;;;;;;;;;;;;;;;;;;4943301;28;20085;-92
2023/10/24 10:18:44;;;;;;;;;;;;;;;;;;4929237;29;19914;-92
2023/10/24 10:21:10;;;;;;;;;;;;;;;;;;4944715;28;19937;-92
2023/10/24 10:23:36;;;;;;;;;;;;;;;;;;4964946;28;19953;-92
2023/10/24 10:26:03;;;;;;;;;;;;;;;;;;4933018;29;20455;-92
2023/10/24 10:28:28;;;;;;;;;;;;;;;;;;4951943;28;19915;-92
2023/10/24 10:30:54;;;;;;;;;;;;;;;;;;4937528;29;19949;-92
2023/10/24 10:33:20;;;;;;;;;;;;;;;;;;4947060;28;19919;-92
2023/10/24 10:35:46;;;;;;;;;;;;;;;;;;4932364;29;19918;-93
2023/10/24 10:38:12;;;;;;;;;;;;;;;;;;4935813;28;19926;-93
2023/10/24 10:40:38;;;;;;;;;;;;;;;;;;4934482;28;19926;-92
2023/10/24 10:43:04;;;;;;;;;;;;;;;;;;4948591;28;19933;-93
2023/10/24 10:45:30;;;;;;;;;;;;;;;;;;4950497;28;19922;-91
2023/10/24 10:47:57;;;;;;;;;;;;;;;;;;4935292;29;19965;-94
2023/10/24 10:50:24;;;;;;;;;;;;;;;;;;4944046;28;20366;-94
2023/10/24 10:52:50;;;;;;;;;;;;;;;;;;4947673;28;19970;-96
2023/10/24 10:55:16;;;;;;;;;;;;;;;;;;4932313;28;19923;-94
2023/10/24 10:57:42;;;;;;;;;;;;;;;;;;4940061;28;20387;-93
2023/10/24 11:00:08;;;;;;;;;;;;;;;;;;4937513;29;19914;-95
2023/10/24 11:02:34;;;;;;;;;;;;;;;;;;4951572;28;19914;-96
2023/10/24 11:05:01;;;;;;;;;;;;;;;;;;4951802;28;19981;-95
2023/10/24 11:07:27;;;;;;;;;;;;;;;;;;4936241;28;19952;-96
2023/10/24 11:09:59;;;;;;;;;;;;;;;;;;4941190;28;19970;-96
2023/10/24 11:12:25;;;;;;;;;;;;;;;;;;4931222;29;19915;-96
2023/10/24 11:14:51;;;;;;;;;;;;;;;;;;4932785;29;20423;-95
2023/10/24 11:17:17;;;;;;;;;;;;;;;;;;4916164;29;19925;-96
2023/10/24 11:19:43;;;;;;;;;;;;;;;;;;4933137;29;19954;-94
2023/10/24 11:22:10;;;;;;;;;;;;;;;;;;4922724;29;19918;-95
2023/10/24 11:24:36;;;;;;;;;;;;;;;;;;4931465;29;19934;-95
2023/10/24 11:27:04;;;;;;;;;;;;;;;;;;4940650;29;20401;-94
2023/10/24 11:29:30;;;;;;;;;;;;;;;;;;4942149;29;19927;-95
2023/10/24 11:31:58;;;;;;;;;;;;;;;;;;4922326;29;19921;-96
2023/10/24 11:34:24;;;;;;;;;;;;;;;;;;4939834;29;19944;-93
2023/10/24 11:36:50;;;;;;;;;;;;;;;;;;4950060;29;19927;-94
2023/10/24 11:39:16;;;;;;;;;;;;;;;;;;4949655;29;19915;-94
2023/10/24 12:02:29;;;;;;;;;;;;;;;;;;4964750;28;19928;-92
2023/10/24 12:04:55;;;;;;;;;;;;;;;;;;4950906;28;20012;-92
2023/10/24 12:07:21;;;;;;;;;;;;;;;;;;4964735;28;19976;-92
2023/10/24 12:09:47;;;;;;;;;;;;;;;;;;4950901;28;19933;-93
2023/10/24 12:12:16;;;;;;;;;;;;;;;;;;4948583;28;20433;-92
2023/10/24 12:14:42;;;;;;;;;;;;;;;;;;4949824;28;19968;-92
2023/10/24 12:17:08;;;;;;;;;;;;;;;;;;4945396;28;19914;-92
2023/10/24 12:19:34;;;;;;;;;;;;;;;;;;4943728;28;19918;-93
2023/10/24 12:22:00;;;;;;;;;;;;;;;;;;4959326;28;20394;-92
2023/10/24 12:24:26;;;;;;;;;;;;;;;;;;4950660;28;19918;-92
2023/10/24 12:26:52;;;;;;;;;;;;;;;;;;4961366;28;19969;-92
2023/10/24 12:29:18;;;;;;;;;;;;;;;;;;4960694;28;19918;-92
2023/10/24 12:31:44;;;;;;;;;;;;;;;;;;4950148;28;19914;-93
2023/10/24 12:34:10;;;;;;;;;;;;;;;;;;4962148;28;19918;-92
2023/10/24 12:36:36;;;;;;;;;;;;;;;;;;4947753;28;20655;-92
2023/10/24 12:39:02;;;;;;;;;;;;;;;;;;4949030;28;20163;-93
2023/10/24 12:41:28;;;;;;;;;;;;;;;;;;4948464;28;19929;-92
2023/10/24 12:43:54;;;;;;;;;;;;;;;;;;4947021;28;19919;-93
2023/10/24 12:46:26;;;;;;;;;;;;;;;;;;4954112;28;20386;-92
2023/10/24 12:48:52;;;;;;;;;;;;;;;;;;4959643;28;19914;-92
2023/10/24 12:51:21;;;;;;;;;;;;;;;;;;4947144;28;19969;-93
2023/10/24 12:53:47;;;;;;;;;;;;;;;;;;4945108;28;19922;-93
2023/10/24 12:56:13;;;;;;;;;;;;;;;;;;4952351;28;19914;-93
2023/10/24 12:58:39;;;;;;;;;;;;;;;;;;4950899;28;20469;-93
2023/10/24 13:01:05;;;;;;;;;;;;;;;;;;4951987;28;20306;-92
2023/10/24 13:03:31;;;;;;;;;;;;;;;;;;4981232;28;19922;-93
2023/10/24 13:05:57;;;;;;;;;;;;;;;;;;4980768;28;19925;-93
2023/10/24 13:08:23;;;;;;;;;;;;;;;;;;4966771;28;19924;-92
2023/10/24 13:10:49;;;;;;;;;;;;;;;;;;4960737;28;20001;-92
2023/10/24 13:13:16;;;;;;;;;;;;;;;;;;4956809;28;19925;-92
2023/10/24 13:15:42;;;;;;;;;;;;;;;;;;4964592;28;20409;-92
2023/10/24 13:18:11;;;;;;;;;;;;;;;;;;4965654;28;19918;-90
2023/10/24 13:20:38;;;;;;;;;;;;;;;;;;4967353;28;20288;-90
2023/10/24 13:23:04;;;;;;;;;;;;;;;;;;4981015;28;19922;-90
2023/10/24 13:25:30;;;;;;;;;;;;;;;;;;4974148;28;19973;-90
2023/10/24 13:27:56;;;;;;;;;;;;;;;;;;4959981;28;19922;-91
2023/10/24 13:30:22;;;;;;;;;;;;;;;;;;4967156;28;20020;-90
2023/10/24 13:32:51;;;;;;;;;;;;;;;;;;4962255;28;19916;-90
2023/10/24 13:35:24;;;;;;;;;;;;;;;;;;4961797;28;19921;-90
2023/10/24 13:37:50;;;;;;;;;;;;;;;;;;4962152;28;20518;-90
2023/10/24 13:40:20;;;;;;;;;;;;;;;;;;4964236;28;19924;-90
2023/10/24 13:42:46;;;;;;;;;;;;;;;;;;4959690;28;19920;-91
2023/10/24 13:45:12;;;;;;;;;;;;;;;;;;4958858;28;20418;-90
2023/10/24 13:47:38;;;;;;;;;;;;;;;;;;4964618;28;19918;-90
2023/10/24 13:50:04;;;;;;;;;;;;;;;;;;4965151;28;19914;-90
2023/10/24 13:52:32;;;;;;;;;;;;;;;;;;4963808;28;19997;-90
2023/10/24 13:55:00;;;;;;;;;;;;;;;;;;4967851;28;19918;-91
2023/10/24 13:57:26;;;;;;;;;;;;;;;;;;4965955;28;20037;-90
2023/10/24 13:59:52;;;;;;;;;;;;;;;;;;4961433;28;19986;-91
2023/10/24 14:02:18;;;;;;;;;;;;;;;;;;4966564;28;19922;-91
2023/10/24 14:04:44;;;;;;;;;;;;;;;;;;4973322;28;19913;-91
2023/10/24 14:07:10;;;;;;;;;;;;;;;;;;4968729;28;19917;-90
2023/10/24 14:09:36;;;;;;;;;;;;;;;;;;4972547;28;19967;-90
2023/10/24 14:12:03;;;;;;;;;;;;;;;;;;4964477;28;19997;-92
2023/10/24 14:14:29;;;;;;;;;;;;;;;;;;4966699;28;20170;-90
2023/10/24 14:16:55;;;;;;;;;;;;;;;;;;4963720;28;20020;-91
2023/10/24 14:19:21;;;;;;;;;;;;;;;;;;4965550;28;19910;-92
2023/10/24 14:21:47;;;;;;;;;;;;;;;;;;4978514;28;19990;-92
2023/10/24 14:24:15;;;;;;;;;;;;;;;;;;4970208;28;20001;-92
2023/10/24 14:26:41;;;;;;;;;;;;;;;;;;4966445;28;19922;-92
2023/10/24 14:29:07;;;;;;;;;;;;;;;;;;4970123;28;20013;-90
2023/10/24 14:31:33;;;;;;;;;;;;;;;;;;4967053;28;20048;-90
2023/10/24 14:34:00;;;;;;;;;;;;;;;;;;4966111;28;19957;-92
2023/10/24 14:36:26;;;;;;;;;;;;;;;;;;4967166;28;20418;-91
2023/10/24 14:38:54;;;;;;;;;;;;;;;;;;4967583;28;19956;-91
2023/10/24 14:41:19;;;;;;;;;;;;;;;;;;4983052;28;19937;-91
2023/10/24 14:43:45;;;;;;;;;;;;;;;;;;4961912;28;19914;-90
2023/10/24 14:46:11;;;;;;;;;;;;;;;;;;4967561;28;19918;-92
2023/10/24 14:48:39;;;;;;;;;;;;;;;;;;4969770;28;19918;-93
2023/10/24 14:51:04;;;;;;;;;;;;;;;;;;4967308;28;19910;-90
2023/10/24 14:53:30;;;;;;;;;;;;;;;;;;4968193;28;20276;-91
2023/10/24 14:55:56;;;;;;;;;;;;;;;;;;4973033;28;20000;-90
2023/10/24 14:58:23;;;;;;;;;;;;;;;;;;4979628;28;20681;-90
2023/10/24 15:00:49;;;;;;;;;;;;;;;;;;4964246;28;20290;-90
2023/10/24 15:03:16;;;;;;;;;;;;;;;;;;4971703;28;19933;-90
2023/10/24 15:05:42;;;;;;;;;;;;;;;;;;4967289;28;19933;-90
2023/10/24 15:08:10;;;;;;;;;;;;;;;;;;4971318;28;19913;-90
2023/10/24 15:10:36;;;;;;;;;;;;;;;;;;4966293;28;20296;-90
2023/10/24 15:13:03;;;;;;;;;;;;;;;;;;4966234;28;19918;-90
2023/10/24 15:15:28;;;;;;;;;;;;;;;;;;4966257;28;19914;-91
2023/10/24 15:17:54;;;;;;;;;;;;;;;;;;4961832;28;20389;-91
2023/10/24 15:20:20;;;;;;;;;;;;;;;;;;4968460;28;20430;-90
2023/10/24 15:22:46;;;;;;;;;;;;;;;;;;4966062;28;19929;-92
2023/10/24 15:25:16;;;;;;;;;;;;;;;;;;4976049;28;19918;-90
2023/10/24 15:27:42;;;;;;;;;;;;;;;;;;4966583;28;19917;-91
2023/10/24 15:30:09;;;;;;;;;;;;;;;;;;4982673;28;20149;-96
2023/10/24 15:32:35;;;;;;;;;;;;;;;;;;4970197;28;20433;-96
2023/10/24 15:35:03;;;;;;;;;;;;;;;;;;4967346;28;19918;-95
2023/10/24 15:37:29;;;;;;;;;;;;;;;;;;4964391;28;19917;-95
2023/10/24 15:39:57;;;;;;;;;;;;;;;;;;4964482;28;19929;-89
2023/10/24 15:42:23;;;;;;;;;;;;;;;;;;4964082;28;19925;-92
2023/10/24 15:44:49;;;;;;;;;;;;;;;;;;4962647;28;19922;-92
2023/10/24 15:47:15;;;;;;;;;;;;;;;;;;4962076;28;19914;-91
2023/10/24 15:49:41;;;;;;;;;;;;;;;;;;4963219;28;19922;-93
2023/10/24 15:52:13;;;;;;;;;;;;;;;;;;4963295;28;19930;-92
2023/10/24 15:54:39;;;;;;;;;;;;;;;;;;4960288;28;20473;-92
2023/10/24 15:57:06;;;;;;;;;;;;;;;;;;4964979;28;20017;-91
2023/10/24 15:59:33;;;;;;;;;;;;;;;;;;4960539;28;19917;-93
2023/10/24 16:01:59;;;;;;;;;;;;;;;;;;4964117;28;19925;-92
2023/10/24 16:04:24;;;;;;;;;;;;;;;;;;4963218;28;19950;-92
2023/10/24 16:06:50;;;;;;;;;;;;;;;;;;4956728;28;19952;-92
2023/10/24 16:09:17;;;;;;;;;;;;;;;;;;4963201;28;19922;-91
2023/10/24 16:11:43;;;;;;;;;;;;;;;;;;4958648;28;19954;-92
2023/10/24 16:14:09;;;;;;;;;;;;;;;;;;4966613;28;19968;-91
2023/10/24 16:16:35;;;;;;;;;;;;;;;;;;4960879;28;19918;-92
2023/10/24 16:19:02;;;;;;;;;;;;;;;;;;4957926;28;19928;-92
2023/10/24 16:21:35;;;;;;;;;;;;;;;;;;4975288;28;19914;-92
2023/10/24 16:24:01;;;;;;;;;;;;;;;;;;4958265;28;19914;-92
2023/10/24 16:26:27;;;;;;;;;;;;;;;;;;4963141;28;19933;-92
2023/10/24 16:28:52;;;;;;;;;;;;;;;;;;4962790;28;20389;-90
2023/10/24 16:31:19;;;;;;;;;;;;;;;;;;4962703;28;19914;-91
2023/10/24 16:33:45;;;;;;;;;;;;;;;;;;4962677;28;19921;-92
2023/10/24 16:36:23;;;;;;;;;;;;;;;;;;4976794;28;20012;-91
2023/10/24 16:38:49;;;;;;;;;;;;;;;;;;4960017;28;20273;-93
2023/10/24 16:41:16;;;;;;;;;;;;;;;;;;4964529;28;19918;-92
2023/10/24 16:43:42;;;;;;;;;;;;;;;;;;4961135;28;20098;-93
2023/10/24 16:46:08;;;;;;;;;;;;;;;;;;4976407;28;19957;-93
2023/10/24 16:48:34;;;;;;;;;;;;;;;;;;4961815;28;19918;-91
2023/10/24 16:51:00;;;;;;;;;;;;;;;;;;4975661;28;19925;-91
2023/10/24 16:53:27;;;;;;;;;;;;;;;;;;4978194;28;19918;-91
2023/10/24 16:55:53;;;;;;;;;;;;;;;;;;4968465;28;19914;-91
2023/10/24 16:58:19;;;;;;;;;;;;;;;;;;4963602;28;20458;-90
2023/10/24 17:00:45;;;;;;;;;;;;;;;;;;4964379;28;19942;-91
2023/10/24 17:03:11;;;;;;;;;;;;;;;;;;4954368;28;19922;-91
2023/10/24 17:05:40;;;;;;;;;;;;;;;;;;4944610;28;19923;-91